Wimbledon, North Dakota
Current Conditions -  °F | °C
As of 4:56 PM on Thursday 23 Oct 2014 (Local Time) from KJMS Reporting Station
Clear Clear  
Wind Chill: 67°   Ceiling: Unl
Heat Index: 67°   Visibility: 10mi
Dew Point: 34°   Wind: 9mph
Humidity: 30%   Direction: 250°WSW
Pressure: 29.81"   Gusts: NA
Location:  47.17°N, 98.46°W
Report Text: KJMS 232156Z AUTO 25008KT 10SM CLR 19/01 A2981 RMK AO2 SLP098 T01940011
Loading
Personal Weather Stations






























Interactive Weather Map
Tropical Storm Tracking
New forecast layout! Learn more

10-Day Weather Forecast

Advertisements
Track Severe Weather on mobile